Time;durP1;ratioP1;P1;durP2;ratioP2;P2;SDS_P1;SDS_P2;PMS_P1;PMS_P2;Temp;Humidity;BMP_temperature;BMP_pressure;BME280_temperature;BME280_humidity;BME280_pressure;Samples;Min_cycle;Max_cycle;Signal;HPM_P1;HPM_P2
2023/10/23 00:02:06;;;;;;;1.33;0.60;;;6.10;99.90;;;;;;5018946;28;20046;-66
2023/10/23 00:04:32;;;;;;;2.05;0.60;;;6.00;99.90;;;;;;4983967;28;20130;-66
2023/10/23 00:06:58;;;;;;;1.35;0.93;;;6.10;99.90;;;;;;4999893;28;20117;-67
2023/10/23 00:09:24;;;;;;;1.45;0.73;;;6.00;99.90;;;;;;5016420;28;20084;-67
2023/10/23 00:11:50;;;;;;;0.38;0.38;;;6.00;99.90;;;;;;5016232;28;20073;-66
2023/10/23 00:14:15;;;;;;;1.27;0.85;;;6.00;99.90;;;;;;5021025;28;20511;-66
2023/10/23 00:16:41;;;;;;;0.55;0.40;;;5.90;99.90;;;;;;5015665;28;20506;-66
2023/10/23 00:19:07;;;;;;;5.10;0.80;;;6.00;99.90;;;;;;5016007;28;20047;-67
2023/10/23 00:21:32;;;;;;;1.42;1.15;;;5.90;99.90;;;;;;5000001;28;20041;-66
2023/10/23 00:23:58;;;;;;;3.80;0.50;;;5.90;99.90;;;;;;5013699;28;20038;-66
2023/10/23 00:26:24;;;;;;;0.93;0.52;;;5.90;99.90;;;;;;4998938;28;20148;-66
2023/10/23 00:28:50;;;;;;;0.70;0.47;;;5.90;99.90;;;;;;4999463;28;20038;-66
2023/10/23 00:31:16;;;;;;;1.20;0.82;;;5.90;99.90;;;;;;5000204;28;20164;-66
2023/10/23 00:33:41;;;;;;;0.88;0.80;;;5.80;99.90;;;;;;4997127;28;20052;-66
2023/10/23 00:36:07;;;;;;;0.52;0.45;;;5.80;99.90;;;;;;5000862;28;20061;-67
2023/10/23 00:38:33;;;;;;;1.15;1.02;;;5.90;99.90;;;;;;5013690;28;20135;-67
2023/10/23 00:40:58;;;;;;;0.50;0.40;;;5.80;99.90;;;;;;5016282;28;20120;-66
2023/10/23 00:43:25;;;;;;;1.88;0.80;;;5.80;99.90;;;;;;5016793;28;20042;-66
2023/10/23 00:45:54;;;;;;;1.58;0.70;;;5.80;99.90;;;;;;5010804;28;20553;-66
2023/10/23 00:48:21;;;;;;;1.25;0.60;;;5.80;99.90;;;;;;5013519;28;20038;-67
2023/10/23 00:50:49;;;;;;;1.30;0.55;;;5.80;99.90;;;;;;5013566;28;20053;-67
2023/10/23 00:53:19;;;;;;;0.50;0.50;;;5.80;99.90;;;;;;5015772;28;20056;-68
2023/10/23 00:55:46;;;;;;;0.43;0.40;;;5.80;99.90;;;;;;5009478;28;20571;-66
2023/10/23 00:58:13;;;;;;;0.40;0.25;;;5.80;99.90;;;;;;5016868;28;20046;-66
2023/10/23 01:00:39;;;;;;;1.42;0.50;;;5.70;99.90;;;;;;5017827;28;20409;-67
2023/10/23 01:03:07;;;;;;;0.73;0.45;;;5.70;99.90;;;;;;5009794;28;20065;-66
2023/10/23 01:05:33;;;;;;;4.78;0.88;;;5.70;99.90;;;;;;4988409;28;20056;-67
2023/10/23 01:07:58;;;;;;;0.57;0.57;;;5.70;99.90;;;;;;5016138;28;20033;-67
2023/10/23 01:10:24;;;;;;;0.60;0.28;;;5.70;99.90;;;;;;4990207;28;20038;-66
2023/10/23 01:12:53;;;;;;;0.88;0.57;;;5.70;99.90;;;;;;5009572;28;20076;-66
2023/10/23 01:15:19;;;;;;;1.42;0.73;;;5.60;99.90;;;;;;5012388;28;20497;-66
2023/10/23 01:17:45;;;;;;;0.68;0.57;;;5.60;99.90;;;;;;5000637;28;20125;-67
2023/10/23 01:20:14;;;;;;;0.70;0.40;;;5.60;99.90;;;;;;4996986;28;20361;-66
2023/10/23 01:22:39;;;;;;;1.15;0.60;;;5.60;99.90;;;;;;5016604;28;20042;-66
2023/10/23 01:25:15;;;;;;;0.70;0.52;;;5.60;99.90;;;;;;5008775;28;20471;-66
2023/10/23 01:27:42;;;;;;;2.75;0.77;;;5.50;99.90;;;;;;5018636;28;20029;-66
2023/10/23 01:30:09;;;;;;;2.50;0.77;;;5.50;99.90;;;;;;5017639;28;20041;-66
2023/10/23 01:32:36;;;;;;;0.77;0.45;;;5.60;99.90;;;;;;4998681;28;20034;-67
2023/10/23 01:35:02;;;;;;;1.30;0.73;;;5.50;99.90;;;;;;5018121;28;20042;-66
2023/10/23 01:37:28;;;;;;;1.65;0.70;;;5.50;99.90;;;;;;5016252;28;20029;-67
2023/10/23 01:39:54;;;;;;;0.90;0.50;;;5.50;99.90;;;;;;5013295;28;20045;-66
2023/10/23 01:42:19;;;;;;;0.82;0.55;;;5.50;99.90;;;;;;5010411;28;20117;-66
2023/10/23 01:44:45;;;;;;;0.40;0.40;;;5.50;99.90;;;;;;4978392;28;20049;-66
2023/10/23 01:47:11;;;;;;;0.60;0.50;;;5.50;99.90;;;;;;5015848;28;20026;-66
2023/10/23 01:49:37;;;;;;;0.77;0.60;;;5.50;99.90;;;;;;5023103;28;20038;-67
2023/10/23 01:52:03;;;;;;;0.45;0.40;;;5.40;99.90;;;;;;5009080;28;20049;-66
2023/10/23 01:54:29;;;;;;;0.77;0.50;;;5.50;99.90;;;;;;4998957;28;20132;-66
2023/10/23 01:56:54;;;;;;;1.15;0.38;;;5.50;99.90;;;;;;5011844;28;20089;-66
2023/10/23 01:59:20;;;;;;;1.08;0.80;;;5.40;99.90;;;;;;5004837;28;20051;-67
2023/10/23 02:01:46;;;;;;;0.60;0.60;;;5.40;99.90;;;;;;5021791;28;20041;-67
2023/10/23 02:04:12;;;;;;;1.60;0.52;;;5.40;99.90;;;;;;5018542;28;20054;-67
2023/10/23 02:06:37;;;;;;;0.85;0.68;;;5.40;99.90;;;;;;5003312;28;20694;-66
2023/10/23 02:09:03;;;;;;;0.60;0.47;;;5.40;99.90;;;;;;5020870;28;20041;-67
2023/10/23 02:11:29;;;;;;;0.20;0.20;;;5.30;99.90;;;;;;5017007;28;20045;-67
2023/10/23 02:13:55;;;;;;;0.85;0.55;;;5.30;99.90;;;;;;5016990;28;20454;-66
2023/10/23 02:16:21;;;;;;;0.88;0.35;;;5.30;99.90;;;;;;5005179;28;20112;-66
2023/10/23 02:18:47;;;;;;;1.13;0.57;;;5.20;99.90;;;;;;4998783;28;20049;-67
2023/10/23 02:21:13;;;;;;;0.40;0.30;;;5.30;99.90;;;;;;5019484;28;20283;-67
2023/10/23 02:23:38;;;;;;;1.25;0.77;;;5.20;99.90;;;;;;5024173;28;20100;-66
2023/10/23 02:26:04;;;;;;;1.05;0.60;;;5.20;99.90;;;;;;5022178;28;20028;-67
2023/10/23 02:28:30;;;;;;;1.23;0.65;;;5.20;99.90;;;;;;5010013;28;20047;-66
2023/10/23 02:30:55;;;;;;;3.13;0.50;;;5.20;99.90;;;;;;4998806;28;20088;-68
2023/10/23 02:33:21;;;;;;;1.02;0.40;;;5.20;99.90;;;;;;5017946;28;20037;-66
2023/10/23 02:35:47;;;;;;;0.63;0.50;;;5.20;99.90;;;;;;5017477;28;20091;-66
2023/10/23 02:38:13;;;;;;;0.93;0.45;;;5.20;99.90;;;;;;5022712;28;20145;-66
2023/10/23 02:40:38;;;;;;;0.60;0.60;;;5.20;99.90;;;;;;5012117;28;20049;-67
2023/10/23 02:43:04;;;;;;;0.75;0.50;;;5.20;99.90;;;;;;5019033;28;20041;-67
2023/10/23 02:45:32;;;;;;;0.85;0.65;;;5.10;99.90;;;;;;5013888;28;20080;-67
2023/10/23 02:47:58;;;;;;;1.45;0.93;;;5.10;99.90;;;;;;5016743;28;20064;-66
2023/10/23 02:50:24;;;;;;;0.63;0.63;;;5.10;99.90;;;;;;5011276;28;20041;-67
2023/10/23 02:52:49;;;;;;;1.35;0.88;;;5.00;99.90;;;;;;5017899;28;20902;-66
2023/10/23 02:55:15;;;;;;;2.33;0.60;;;5.00;99.90;;;;;;5014438;28;20108;-66
2023/10/23 02:57:41;;;;;;;1.02;0.63;;;5.00;99.90;;;;;;5008318;28;20116;-66
2023/10/23 03:00:07;;;;;;;0.73;0.60;;;5.00;99.90;;;;;;5001129;28;20267;-67
2023/10/23 03:02:33;;;;;;;0.52;0.45;;;4.90;99.90;;;;;;5020079;28;20068;-66
2023/10/23 03:04:59;;;;;;;0.60;0.60;;;5.00;99.90;;;;;;5000223;28;20438;-67
2023/10/23 03:07:25;;;;;;;1.50;0.73;;;4.90;99.90;;;;;;5015807;28;20065;-67
2023/10/23 03:09:51;;;;;;;0.68;0.50;;;4.90;99.90;;;;;;5021307;28;20049;-66
2023/10/23 03:12:16;;;;;;;1.35;0.70;;;4.90;99.90;;;;;;5001524;28;20049;-67
2023/10/23 03:14:42;;;;;;;1.70;0.85;;;4.90;99.90;;;;;;5016281;28;20045;-66
2023/10/23 03:17:08;;;;;;;0.60;0.60;;;4.80;99.90;;;;;;5013669;28;20125;-66
2023/10/23 03:19:33;;;;;;;1.58;0.90;;;4.90;99.90;;;;;;5016811;28;20104;-65
2023/10/23 03:21:59;;;;;;;0.60;0.45;;;4.70;99.90;;;;;;5001289;28;20100;-65
2023/10/23 03:24:25;;;;;;;1.15;0.50;;;4.80;99.90;;;;;;5015615;28;20070;-65
2023/10/23 03:26:50;;;;;;;3.10;0.50;;;4.70;99.90;;;;;;5009393;28;20104;-65
2023/10/23 03:29:16;;;;;;;0.90;0.60;;;4.80;99.90;;;;;;5015497;28;20030;-65
2023/10/23 03:31:42;;;;;;;0.70;0.43;;;4.70;99.90;;;;;;5012929;28;20042;-65
2023/10/23 03:34:08;;;;;;;0.93;0.70;;;4.70;99.90;;;;;;5017972;28;20044;-66
2023/10/23 03:36:34;;;;;;;0.60;0.52;;;4.70;99.90;;;;;;4996182;28;20052;-66
2023/10/23 03:39:00;;;;;;;0.75;0.30;;;4.80;99.90;;;;;;4996085;28;20498;-66
2023/10/23 03:41:25;;;;;;;0.50;0.50;;;4.70;99.90;;;;;;4999955;28;20041;-66
2023/10/23 03:43:51;;;;;;;1.30;0.77;;;4.70;99.90;;;;;;4990078;28;20117;-65
2023/10/23 03:46:17;;;;;;;0.30;0.30;;;4.70;99.90;;;;;;5004559;28;20125;-65
2023/10/23 03:48:43;;;;;;;0.68;0.30;;;4.70;99.90;;;;;;5020011;28;20687;-66
2023/10/23 03:51:09;;;;;;;0.65;0.55;;;4.70;99.90;;;;;;5008515;28;20099;-66
2023/10/23 03:53:35;;;;;;;0.45;0.30;;;4.70;99.90;;;;;;5020855;28;20034;-66
2023/10/23 03:56:03;;;;;;;0.93;0.57;;;4.70;99.90;;;;;;4999074;28;20103;-66
2023/10/23 03:58:29;;;;;;;0.70;0.50;;;4.70;99.90;;;;;;4995165;28;20109;-66
2023/10/23 04:00:55;;;;;;;0.30;0.30;;;4.60;99.90;;;;;;5012476;28;20125;-66
2023/10/23 04:03:21;;;;;;;0.70;0.47;;;4.70;99.90;;;;;;4997628;28;20045;-66
2023/10/23 04:05:47;;;;;;;0.43;0.32;;;4.70;99.90;;;;;;4992594;28;20057;-68
2023/10/23 04:08:12;;;;;;;0.63;0.57;;;4.70;99.90;;;;;;5001686;28;20050;-66
2023/10/23 04:10:47;;;;;;;0.57;0.45;;;4.70;99.90;;;;;;4999931;28;20053;-66
2023/10/23 04:13:14;;;;;;;0.73;0.73;;;4.70;99.90;;;;;;4995982;28;20081;-67
2023/10/23 04:15:39;;;;;;;0.82;0.73;;;4.60;99.90;;;;;;5013387;28;20041;-66
2023/10/23 04:18:05;;;;;;;0.80;0.52;;;4.70;99.90;;;;;;4996505;28;20056;-67
2023/10/23 04:20:30;;;;;;;0.80;0.50;;;4.70;99.90;;;;;;5013981;28;20072;-66
2023/10/23 04:22:56;;;;;;;6.55;0.60;;;4.70;99.90;;;;;;5008176;28;20482;-66
2023/10/23 04:25:22;;;;;;;4.70;0.93;;;4.70;99.90;;;;;;5013436;28;20041;-65
2023/10/23 04:27:47;;;;;;;1.65;1.00;;;4.70;99.90;;;;;;5013240;28;20046;-66
2023/10/23 04:30:13;;;;;;;1.05;0.70;;;4.70;99.90;;;;;;5012891;28;20046;-66
2023/10/23 04:32:39;;;;;;;1.00;0.68;;;4.70;99.90;;;;;;5015114;28;20033;-66
2023/10/23 04:35:05;;;;;;;0.70;0.70;;;4.70;99.90;;;;;;5010700;28;20099;-67
2023/10/23 04:37:31;;;;;;;2.95;0.93;;;4.70;99.90;;;;;;4997443;28;20044;-66
2023/10/23 04:39:56;;;;;;;1.17;0.60;;;4.60;99.90;;;;;;5014172;28;20486;-66
2023/10/23 04:42:22;;;;;;;1.48;0.98;;;4.60;99.90;;;;;;5014177;28;20152;-66
2023/10/23 04:44:48;;;;;;;0.50;0.30;;;4.70;99.90;;;;;;5011851;28;20034;-66
2023/10/23 04:47:14;;;;;;;1.90;0.85;;;4.70;99.90;;;;;;5018354;28;20033;-66
2023/10/23 04:49:39;;;;;;;0.90;0.65;;;4.70;99.90;;;;;;4998400;28;20121;-66
2023/10/23 04:52:06;;;;;;;0.73;0.63;;;4.70;99.90;;;;;;5012376;28;20103;-67
2023/10/23 04:54:31;;;;;;;1.70;1.00;;;4.60;99.90;;;;;;5000823;28;20041;-66
2023/10/23 04:56:57;;;;;;;0.77;0.50;;;4.60;99.90;;;;;;4995385;28;20044;-66
2023/10/23 04:59:23;;;;;;;0.68;0.30;;;4.60;99.90;;;;;;4981726;28;20093;-66
2023/10/23 05:01:51;;;;;;;0.70;0.55;;;4.60;99.90;;;;;;5009019;28;20132;-66
2023/10/23 05:04:17;;;;;;;1.35;0.80;;;4.60;99.90;;;;;;5010276;28;20132;-67
2023/10/23 05:06:43;;;;;;;1.00;0.70;;;4.60;99.90;;;;;;4988366;28;20192;-66
2023/10/23 05:09:10;;;;;;;1.38;0.88;;;4.50;99.90;;;;;;5013201;28;20434;-66
2023/10/23 05:11:36;;;;;;;0.75;0.40;;;4.50;99.90;;;;;;4990408;28;20504;-67
2023/10/23 05:14:02;;;;;;;1.45;0.95;;;4.50;99.90;;;;;;4981751;28;20038;-67
2023/10/23 05:16:27;;;;;;;0.47;0.45;;;4.40;99.90;;;;;;5012312;28;20096;-65
2023/10/23 05:18:53;;;;;;;0.55;0.40;;;4.40;99.90;;;;;;4998999;28;20117;-66
2023/10/23 05:21:19;;;;;;;0.70;0.63;;;4.40;99.90;;;;;;5009345;28;20037;-67
2023/10/23 05:23:44;;;;;;;0.82;0.55;;;4.40;99.90;;;;;;5012040;28;20398;-66
2023/10/23 05:26:11;;;;;;;0.65;0.43;;;4.40;99.90;;;;;;4996267;28;20539;-65
2023/10/23 05:28:43;;;;;;;1.50;0.93;;;4.40;99.90;;;;;;5013869;28;20045;-66
2023/10/23 05:31:09;;;;;;;0.82;0.80;;;4.30;99.90;;;;;;4992131;28;20551;-65
2023/10/23 05:33:35;;;;;;;1.30;0.80;;;4.20;99.90;;;;;;5014950;28;20121;-67
2023/10/23 05:36:04;;;;;;;0.63;0.60;;;4.20;99.90;;;;;;4996374;28;20034;-66
2023/10/23 05:38:30;;;;;;;1.05;0.57;;;4.30;99.90;;;;;;5015130;28;20045;-66
2023/10/23 05:41:00;;;;;;;0.70;0.63;;;4.30;99.90;;;;;;4992876;28;20046;-67
2023/10/23 05:43:26;;;;;;;1.55;0.90;;;4.30;99.90;;;;;;4997783;28;20033;-66
2023/10/23 05:45:53;;;;;;;0.85;0.65;;;4.30;99.90;;;;;;5015608;28;20041;-66
2023/10/23 05:48:19;;;;;;;2.42;0.95;;;4.30;99.90;;;;;;4998003;28;20075;-66
2023/10/23 05:50:44;;;;;;;1.23;0.70;;;4.40;99.90;;;;;;5011962;28;20571;-67
2023/10/23 05:53:10;;;;;;;0.75;0.40;;;4.40;99.90;;;;;;4998387;28;20073;-66
2023/10/23 05:55:36;;;;;;;3.80;1.33;;;4.40;99.90;;;;;;5016975;28;20797;-68
2023/10/23 05:58:02;;;;;;;0.63;0.63;;;4.40;99.90;;;;;;4996584;28;20038;-66
2023/10/23 06:00:28;;;;;;;1.05;0.80;;;4.40;99.90;;;;;;5017483;28;20045;-67
2023/10/23 06:02:54;;;;;;;0.75;0.60;;;4.50;99.90;;;;;;5016353;28;20141;-67
2023/10/23 06:05:20;;;;;;;0.82;0.57;;;4.50;99.90;;;;;;5002309;28;20561;-67
2023/10/23 06:07:46;;;;;;;1.08;0.65;;;4.30;99.90;;;;;;5020969;28;20457;-67
2023/10/23 06:10:12;;;;;;;1.27;0.63;;;4.40;99.90;;;;;;5011535;28;20034;-67
2023/10/23 06:12:37;;;;;;;0.63;0.45;;;4.30;99.90;;;;;;4988415;28;20406;-67
2023/10/23 06:15:04;;;;;;;0.40;0.40;;;4.40;99.90;;;;;;4996604;28;20125;-67
2023/10/23 06:17:29;;;;;;;0.80;0.63;;;4.30;99.90;;;;;;5003597;28;20058;-66
2023/10/23 06:19:55;;;;;;;0.65;0.63;;;4.30;99.90;;;;;;5011575;28;20122;-67
2023/10/23 06:22:21;;;;;;;0.90;0.63;;;4.30;99.90;;;;;;5011272;28;20041;-68
2023/10/23 06:24:46;;;;;;;1.10;0.60;;;4.30;99.90;;;;;;5009632;28;20457;-66
2023/10/23 06:27:12;;;;;;;0.90;0.43;;;4.30;99.90;;;;;;5008795;28;20422;-67
2023/10/23 06:29:38;;;;;;;0.93;0.50;;;4.30;99.90;;;;;;5013447;28;20180;-66
2023/10/23 06:32:04;;;;;;;0.75;0.68;;;4.30;99.90;;;;;;5001677;28;20529;-69
2023/10/23 06:34:30;;;;;;;1.10;0.60;;;4.30;99.90;;;;;;5012834;28;20047;-66
2023/10/23 06:36:56;;;;;;;1.15;0.60;;;4.30;99.90;;;;;;5021726;28;20482;-68
2023/10/23 06:39:22;;;;;;;0.47;0.40;;;4.40;99.90;;;;;;5013600;28;20131;-66
2023/10/23 06:41:50;;;;;;;0.80;0.47;;;4.30;99.90;;;;;;5006396;28;20398;-67
2023/10/23 06:44:16;;;;;;;0.77;0.75;;;4.40;99.90;;;;;;4992783;28;20034;-66
2023/10/23 06:46:42;;;;;;;0.25;0.25;;;4.40;99.90;;;;;;4991445;28;20042;-66
2023/10/23 06:49:08;;;;;;;7.53;0.73;;;4.40;99.90;;;;;;5020344;28;20047;-67
2023/10/23 06:51:33;;;;;;;1.08;0.75;;;4.40;99.90;;;;;;5015099;28;20037;-66
2023/10/23 06:53:59;;;;;;;0.75;0.70;;;4.50;99.90;;;;;;5018286;28;20054;-66
2023/10/23 06:56:25;;;;;;;1.27;0.75;;;4.50;99.90;;;;;;4995463;28;20085;-67
2023/10/23 06:58:50;;;;;;;1.02;0.60;;;4.50;99.90;;;;;;5017594;28;20117;-67
2023/10/23 07:01:16;;;;;;;0.65;0.30;;;4.60;99.90;;;;;;5011274;28;20132;-66
2023/10/23 07:03:42;;;;;;;1.40;0.45;;;4.60;99.90;;;;;;5018425;28;20137;-67
2023/10/23 07:06:08;;;;;;;0.80;0.52;;;4.50;99.90;;;;;;4996052;28;20485;-67
2023/10/23 07:08:34;;;;;;;0.57;0.50;;;4.60;99.90;;;;;;5006898;28;20117;-67
2023/10/23 07:11:00;;;;;;;1.25;0.73;;;4.60;99.90;;;;;;5005808;28;20418;-67
2023/10/23 07:13:27;;;;;;;3.42;0.85;;;4.70;99.90;;;;;;5004516;28;20060;-67
2023/10/23 07:15:52;;;;;;;1.60;0.80;;;4.80;99.90;;;;;;4986427;28;20092;-66
2023/10/23 07:18:18;;;;;;;1.17;1.05;;;4.90;99.90;;;;;;4987747;28;20076;-68
2023/10/23 07:20:55;;;;;;;2.45;1.02;;;5.10;99.90;;;;;;4991883;28;20451;-67
2023/10/23 07:23:25;;;;;;;2.58;1.13;;;5.30;99.90;;;;;;5019585;28;20044;-67
2023/10/23 07:26:10;;;;;;;2.25;0.90;;;5.50;99.90;;;;;;5007011;28;20052;-67
2023/10/23 07:28:40;;;;;;;4.32;1.85;;;5.90;99.90;;;;;;5018360;28;20048;-67
2023/10/23 07:31:07;;;;;;;4.70;1.50;;;6.70;99.90;;;;;;5015972;28;20179;-67
2023/10/23 07:33:33;;;;;;;6.40;0.88;;;7.50;99.90;;;;;;5022859;28;20052;-67
2023/10/23 07:36:10;;;;;;;2.30;1.77;;;8.50;99.90;;;;;;5006433;28;20061;-67
2023/10/23 07:38:41;;;;;;;1.73;0.93;;;9.40;99.90;;;;;;5018788;28;20112;-67
2023/10/23 07:41:07;;;;;;;1.05;0.75;;;10.20;99.90;;;;;;5008283;28;20037;-64
2023/10/23 07:43:32;;;;;;;1.65;1.13;;;10.90;99.90;;;;;;5010901;28;20046;-64
2023/10/23 07:46:06;;;;;;;1.83;1.58;;;11.70;99.90;;;;;;4995089;28;20037;-66
2023/10/23 07:48:32;;;;;;;2.53;1.70;;;12.40;99.90;;;;;;5014882;28;20045;-65
2023/10/23 07:50:59;;;;;;;2.58;1.95;;;13.00;99.90;;;;;;5017042;28;20333;-64
2023/10/23 07:53:28;;;;;;;2.25;1.55;;;13.40;99.90;;;;;;5023918;28;20128;-65
2023/10/23 07:56:05;;;;;;;2.85;1.50;;;13.80;99.90;;;;;;4996686;28;20114;-65
2023/10/23 07:59:19;;;;;;;1.23;0.95;;;14.30;99.90;;;;;;5015615;28;20045;-65
2023/10/23 08:01:56;;;;;;;1.83;1.23;;;14.70;99.90;;;;;;4942646;28;20095;-66
2023/10/23 08:04:22;;;;;;;5.40;1.55;;;15.20;99.90;;;;;;4939478;28;20063;-67
2023/10/23 08:06:48;;;;;;;1.30;0.90;;;15.50;99.90;;;;;;5001520;28;20500;-66
2023/10/23 08:09:14;;;;;;;2.50;1.13;;;15.90;99.90;;;;;;5003276;28;20048;-67
2023/10/23 08:11:40;;;;;;;1.42;1.08;;;16.30;99.90;;;;;;5001095;28;20073;-67
2023/10/23 08:14:05;;;;;;;1.27;1.02;;;16.60;99.90;;;;;;4988660;28;20525;-67
2023/10/23 08:16:32;;;;;;;1.17;0.75;;;17.00;99.90;;;;;;5009560;28;20795;-66
2023/10/23 08:18:57;;;;;;;0.80;0.68;;;17.30;99.90;;;;;;4995921;28;20060;-66
2023/10/23 08:21:26;;;;;;;0.73;0.50;;;17.50;99.90;;;;;;5011658;28;20724;-66
2023/10/23 08:23:58;;;;;;;1.15;0.60;;;17.60;99.90;;;;;;5012234;28;20042;-66
2023/10/23 08:26:24;;;;;;;1.30;0.70;;;17.50;99.90;;;;;;5011973;28;20034;-66
2023/10/23 08:28:50;;;;;;;1.33;0.73;;;17.30;99.90;;;;;;5020757;28;20041;-67
2023/10/23 08:31:16;;;;;;;1.25;0.80;;;16.80;99.90;;;;;;4996525;28;20050;-67
2023/10/23 08:33:42;;;;;;;1.27;0.70;;;16.50;99.90;;;;;;5015117;28;20048;-66
2023/10/23 08:36:09;;;;;;;0.93;0.50;;;16.30;99.90;;;;;;5020274;28;20125;-67
2023/10/23 08:38:34;;;;;;;1.00;0.40;;;16.30;99.90;;;;;;5018875;28;20117;-66
2023/10/23 08:41:03;;;;;;;1.13;0.70;;;16.10;99.90;;;;;;5001628;28;20120;-67
2023/10/23 08:43:30;;;;;;;1.45;0.82;;;16.00;99.90;;;;;;5017289;28;20064;-67
2023/10/23 08:45:59;;;;;;;1.25;0.70;;;15.40;99.90;;;;;;5021244;28;20065;-67
2023/10/23 08:48:25;;;;;;;2.63;1.10;;;14.80;99.90;;;;;;5017726;28;20580;-66
2023/10/23 08:50:51;;;;;;;0.98;0.80;;;14.50;99.90;;;;;;5019157;28;20052;-66
2023/10/23 08:53:22;;;;;;;1.10;0.75;;;14.30;99.90;;;;;;5019813;28;20337;-67
2023/10/23 08:55:48;;;;;;;1.50;0.90;;;14.00;99.90;;;;;;5017823;28;20063;-65
2023/10/23 08:58:15;;;;;;;0.95;0.70;;;13.80;99.90;;;;;;5015414;28;20124;-66
2023/10/23 09:00:41;;;;;;;0.80;0.60;;;13.90;99.90;;;;;;4998473;28;20081;-66
2023/10/23 09:03:09;;;;;;;2.42;0.80;;;14.30;99.90;;;;;;5017080;28;20498;-65
2023/10/23 09:05:35;;;;;;;1.63;0.90;;;14.50;99.90;;;;;;4973987;28;20054;-66
2023/10/23 09:08:02;;;;;;;0.80;0.60;;;14.20;99.90;;;;;;5013539;28;20046;-66
2023/10/23 09:10:27;;;;;;;1.65;1.00;;;14.20;99.90;;;;;;5020104;28;20057;-67
2023/10/23 09:12:56;;;;;;;1.38;0.70;;;14.80;99.90;;;;;;5003187;28;20376;-66
2023/10/23 09:15:24;;;;;;;1.15;0.85;;;15.20;99.90;;;;;;5003770;28;20049;-66
2023/10/23 09:17:51;;;;;;;1.05;0.95;;;15.20;99.90;;;;;;4997357;28;20060;-65
2023/10/23 09:20:20;;;;;;;1.05;0.80;;;15.70;99.90;;;;;;5014736;28;20046;-66
2023/10/23 09:22:49;;;;;;;1.38;1.00;;;15.60;99.90;;;;;;5016271;28;20132;-67
2023/10/23 09:25:15;;;;;;;1.63;0.90;;;15.60;99.90;;;;;;4996772;28;20044;-67
2023/10/23 09:27:41;;;;;;;1.05;0.85;;;16.30;99.90;;;;;;5012970;28;20049;-66
2023/10/23 09:30:08;;;;;;;3.55;0.80;;;16.80;99.90;;;;;;5015886;28;20457;-66
2023/10/23 09:32:37;;;;;;;1.50;0.88;;;17.40;99.90;;;;;;5017830;28;20045;-66
2023/10/23 09:35:04;;;;;;;0.85;0.75;;;17.80;99.90;;;;;;5017631;28;20041;-67
2023/10/23 09:37:30;;;;;;;1.10;0.73;;;18.10;99.90;;;;;;4995744;28;20117;-67
2023/10/23 09:40:00;;;;;;;1.88;0.88;;;17.90;99.90;;;;;;5014633;28;20120;-66
2023/10/23 09:42:35;;;;;;;1.80;1.05;;;18.00;99.90;;;;;;5001832;28;20054;-66
2023/10/23 09:45:02;;;;;;;0.88;0.68;;;17.80;99.90;;;;;;4982481;28;20069;-67
2023/10/23 09:47:32;;;;;;;0.77;0.55;;;17.60;99.90;;;;;;5017871;28;20112;-66
2023/10/23 09:50:03;;;;;;;1.17;0.80;;;17.30;99.90;;;;;;5014451;28;20041;-68
2023/10/23 09:52:34;;;;;;;1.17;0.60;;;17.20;99.90;;;;;;5018176;28;20099;-66
2023/10/23 09:55:09;;;;;;;1.77;0.98;;;17.10;99.90;;;;;;5019596;28;20042;-68
2023/10/23 09:57:40;;;;;;;1.35;0.75;;;16.50;99.90;;;;;;5009672;28;20141;-66
2023/10/23 10:00:13;;;;;;;1.08;0.65;;;16.00;99.90;;;;;;4993553;28;20092;-66
2023/10/23 10:02:43;;;;;;;1.02;0.63;;;16.00;99.90;;;;;;5020314;28;20584;-66
2023/10/23 10:05:12;;;;;;;1.63;0.70;;;15.80;99.90;;;;;;5015714;28;20531;-66
2023/10/23 10:08:02;;;;;;;1.48;0.77;;;15.50;99.90;;;;;;5015398;28;20101;-66
2023/10/23 10:10:29;;;;;;;1.73;0.98;;;15.10;99.90;;;;;;5018124;28;20061;-66
2023/10/23 10:12:55;;;;;;;2.53;1.27;;;14.50;99.90;;;;;;5020037;28;20029;-66
2023/10/23 10:15:23;;;;;;;1.30;0.80;;;14.10;99.90;;;;;;5017283;28;20469;-65
2023/10/23 10:17:52;;;;;;;1.73;1.05;;;13.80;99.90;;;;;;4980961;28;20050;-67
2023/10/23 10:20:21;;;;;;;2.67;1.48;;;13.40;99.90;;;;;;4988196;28;20089;-66
2023/10/23 10:23:04;;;;;;;4.15;1.20;;;13.00;99.90;;;;;;5019805;28;20224;-66
2023/10/23 10:25:31;;;;;;;2.40;0.90;;;12.70;99.90;;;;;;4995786;28;20041;-66
2023/10/23 10:27:58;;;;;;;1.50;1.35;;;12.30;99.90;;;;;;5028244;28;20045;-66
2023/10/23 10:30:49;;;;;;;2.42;1.33;;;12.00;99.90;;;;;;5021961;28;20457;-67
2023/10/23 10:33:30;;;;;;;1.40;1.10;;;11.70;99.90;;;;;;5000055;28;20117;-67
2023/10/23 10:35:59;;;;;;;2.47;1.23;;;11.50;99.90;;;;;;5013239;28;20038;-67
2023/10/23 10:38:26;;;;;;;2.65;1.98;;;11.30;99.90;;;;;;4994271;28;20286;-67
2023/10/23 10:41:14;;;;;;;2.35;1.90;;;11.20;99.90;;;;;;5004762;28;20398;-67
2023/10/23 10:43:40;;;;;;;2.83;1.60;;;11.10;99.90;;;;;;5015260;28;20033;-67
2023/10/23 10:46:36;;;;;;;4.13;2.20;;;11.00;99.90;;;;;;5012517;28;20053;-66
2023/10/23 10:49:03;;;;;;;3.05;1.88;;;10.90;99.90;;;;;;4982678;28;20050;-67
2023/10/23 10:51:30;;;;;;;4.53;3.05;;;10.90;99.90;;;;;;5006002;28;20490;-68
2023/10/23 10:54:03;;;;;;;3.28;2.17;;;10.80;99.90;;;;;;4995301;28;20042;-66
2023/10/23 10:56:30;;;;;;;2.60;1.95;;;10.80;99.90;;;;;;5013169;28;20096;-67
2023/10/23 10:59:02;;;;;;;7.22;3.28;;;10.80;99.90;;;;;;5022116;28;20037;-66
2023/10/23 11:01:29;;;;;;;4.20;2.30;;;10.90;99.90;;;;;;5018051;28;20081;-66
2023/10/23 11:03:55;;;;;;;5.03;3.10;;;10.80;99.90;;;;;;4996505;28;20042;-67
2023/10/23 11:06:21;;;;;;;5.97;3.60;;;10.80;99.90;;;;;;5013870;28;20061;-67
2023/10/23 11:08:47;;;;;;;7.05;4.60;;;10.80;99.90;;;;;;5006471;28;20038;-67
2023/10/23 11:11:13;;;;;;;8.40;4.32;;;10.80;99.90;;;;;;4996248;28;20144;-66
2023/10/23 11:13:40;;;;;;;7.55;4.25;;;10.80;99.90;;;;;;4999933;28;20462;-67
2023/10/23 11:16:06;;;;;;;7.32;4.05;;;10.80;99.90;;;;;;5015631;28;20052;-67
2023/10/23 11:18:32;;;;;;;8.50;3.92;;;10.90;99.90;;;;;;5003615;28;20045;-67
2023/10/23 11:21:00;;;;;;;8.75;4.57;;;10.90;99.90;;;;;;4998947;28;20135;-66
2023/10/23 11:23:30;;;;;;;8.88;4.78;;;10.90;99.90;;;;;;4997864;28;20045;-66
2023/10/23 11:25:56;;;;;;;6.50;4.13;;;11.00;99.90;;;;;;5019199;28;20717;-67
2023/10/23 11:28:22;;;;;;;6.95;3.88;;;11.00;99.90;;;;;;4987661;28;20133;-67
2023/10/23 11:30:56;;;;;;;8.60;5.60;;;11.00;99.90;;;;;;5004992;28;20046;-66
2023/10/23 11:33:22;;;;;;;15.18;4.65;;;11.00;99.90;;;;;;4998225;28;20493;-68
2023/10/23 11:35:47;;;;;;;9.20;4.88;;;11.00;99.90;;;;;;5002710;28;20108;-67
2023/10/23 11:38:20;;;;;;;9.93;5.07;;;11.00;99.90;;;;;;5001007;28;20042;-67
2023/10/23 11:40:46;;;;;;;8.02;4.13;;;11.10;99.90;;;;;;5001530;28;20099;-67
2023/10/23 11:43:15;;;;;;;7.22;3.85;;;11.20;99.90;;;;;;4999125;28;20044;-67
2023/10/23 11:45:42;;;;;;;9.50;5.28;;;11.20;99.90;;;;;;5016895;28;20386;-67
2023/10/23 11:48:08;;;;;;;8.48;4.50;;;11.30;99.90;;;;;;5000862;28;20439;-66
2023/10/23 11:50:37;;;;;;;9.82;5.18;;;11.40;99.90;;;;;;5020831;28;20045;-67
2023/10/23 11:53:04;;;;;;;6.38;4.13;;;11.40;99.90;;;;;;5023363;28;20041;-66
2023/10/23 11:55:31;;;;;;;9.82;4.88;;;11.40;99.90;;;;;;5000793;28;20049;-67
2023/10/23 11:57:56;;;;;;;6.82;5.43;;;11.50;99.90;;;;;;5018635;28;20075;-67
2023/10/23 12:00:23;;;;;;;9.05;4.20;;;11.60;99.90;;;;;;5011543;28;20053;-67
2023/10/23 12:02:49;;;;;;;8.40;4.80;;;11.60;99.90;;;;;;4996192;28;20034;-67
2023/10/23 12:05:21;;;;;;;7.40;4.50;;;11.60;99.90;;;;;;5016865;28;20065;-67
2023/10/23 12:07:49;;;;;;;10.20;4.80;;;11.60;99.90;;;;;;5022806;28;20055;-67
2023/10/23 12:10:19;;;;;;;7.95;5.00;;;11.60;99.90;;;;;;5022281;28;20061;-67
2023/10/23 12:12:46;;;;;;;9.77;4.85;;;11.60;99.90;;;;;;5004832;28;20045;-68
2023/10/23 12:15:14;;;;;;;8.50;5.13;;;11.60;99.90;;;;;;5001760;28;20041;-68
2023/10/23 12:17:41;;;;;;;7.85;4.63;;;11.60;99.90;;;;;;4998286;28;20044;-68
2023/10/23 12:20:11;;;;;;;8.15;4.20;;;11.60;99.90;;;;;;4993091;28;20048;-67
2023/10/23 12:22:45;;;;;;;10.70;5.57;;;11.70;99.90;;;;;;5014626;28;20037;-68
2023/10/23 12:25:16;;;;;;;8.60;5.35;;;11.70;99.90;;;;;;5016463;28;20037;-68
2023/10/23 12:27:42;;;;;;;8.98;4.60;;;11.70;99.90;;;;;;5020772;28;20146;-68
2023/10/23 12:30:10;;;;;;;13.48;6.40;;;11.80;99.90;;;;;;5013997;28;20064;-67
2023/10/23 12:32:36;;;;;;;10.65;4.93;;;11.80;99.90;;;;;;5006309;28;20054;-68
2023/10/23 12:35:05;;;;;;;6.95;4.53;;;11.80;99.90;;;;;;5019890;28;20061;-68
2023/10/23 12:37:32;;;;;;;7.65;4.60;;;11.80;99.90;;;;;;5006065;28;20045;-67
2023/10/23 12:40:00;;;;;;;9.05;4.78;;;11.80;99.90;;;;;;5027562;28;20429;-67
2023/10/23 12:42:28;;;;;;;6.60;4.53;;;11.90;99.90;;;;;;5021658;28;20224;-67
2023/10/23 12:44:55;;;;;;;8.18;4.82;;;11.80;99.90;;;;;;5000098;28;20057;-68
2023/10/23 12:47:22;;;;;;;7.15;4.18;;;11.80;99.90;;;;;;5015268;28;20051;-68
2023/10/23 12:49:47;;;;;;;6.18;4.10;;;11.80;99.90;;;;;;5013722;28;20066;-68
2023/10/23 12:52:14;;;;;;;6.47;3.53;;;11.80;99.90;;;;;;4999993;28;20041;-67
2023/10/23 12:54:40;;;;;;;8.15;4.85;;;11.80;99.90;;;;;;4985341;28;20049;-68